Louisville, Ohio
Current Conditions -  °F | °C
As of 1:51 AM on Tuesday 21 Oct 2014 (Local Time) from KCAK Reporting Station
Haze Haze  
Wind Chill: 52°   Ceiling: 300
Heat Index: 52°   Visibility: 3mi
Dew Point: 49°   Wind: 6mph
Humidity: 89%   Direction: 260°W
Pressure: 29.84"   Gusts: NA
Location:  40.84°N, 81.26°W
Report Text: KCAK 210551Z 26005KT 3SM BR OVC003 11/09 A2984 RMK AO2 CIG 003V007 SLP106 60013 T01110094 10111 20106 58005 $
Loading
Personal Weather Stations






























Interactive Weather Map
Tropical Storm Tracking
New forecast layout! Learn more

10-Day Weather Forecast

Advertisements
Track Severe Weather on mobile